Time;durP1;ratioP1;P1;durP2;ratioP2;P2;SDS_P1;SDS_P2;PMS_P1;PMS_P2;Temp;Humidity;BMP_temperature;BMP_pressure;BME280_temperature;BME280_humidity;BME280_pressure;Samples;Min_cycle;Max_cycle;Signal;HPM_P1;HPM_P2
2022/10/25 00:02:04;;;;;;;33.17;12.40;;;;;;;13.08;62.89;99792.88;5050407;28;20036;-67
2022/10/25 00:04:30;;;;;;;31.55;11.07;;;;;;;13.31;62.22;99798.94;5049054;28;20158;-66
2022/10/25 00:06:55;;;;;;;29.02;10.52;;;;;;;13.06;62.64;99796.03;5049342;28;20538;-66
2022/10/25 00:09:21;;;;;;;34.75;12.05;;;;;;;13.08;63.08;99801.31;5049932;28;20534;-67
2022/10/25 00:11:46;;;;;;;34.63;12.30;;;;;;;12.84;63.98;99800.84;5049854;28;20415;-66
2022/10/25 00:14:17;;;;;;;35.05;11.45;;;;;;;12.72;64.62;99789.53;5031715;28;20087;-66
2022/10/25 00:16:43;;;;;;;34.03;10.70;;;;;;;12.44;65.51;99790.91;5049760;28;20024;-66
2022/10/25 00:19:10;;;;;;;22.40;11.05;;;;;;;12.61;64.68;99787.16;5048996;28;20025;-67
2022/10/25 00:21:36;;;;;;;28.45;11.55;;;;;;;12.55;65.26;99787.66;5048983;28;20035;-66
2022/10/25 00:24:03;;;;;;;37.63;11.57;;;;;;;12.44;65.80;99795.69;5048907;28;20021;-67
2022/10/25 00:26:29;;;;;;;42.33;13.35;;;;;;;12.50;65.73;99783.09;5049880;28;20324;-66
2022/10/25 00:28:55;;;;;;;22.50;11.50;;;;;;;12.76;64.81;99787.72;5049976;28;20458;-67
2022/10/25 00:31:21;;;;;;;28.25;11.90;;;;;;;12.49;65.63;99793.50;5049975;28;20021;-66
2022/10/25 00:33:46;;;;;;;29.80;12.65;;;;;;;12.65;65.35;99790.09;5031829;28;20036;-66
2022/10/25 00:36:18;;;;;;;29.48;12.30;;;;;;;12.28;67.18;99779.44;5048892;28;20488;-66
2022/10/25 00:38:45;;;;;;;29.52;11.25;;;;;;;12.37;67.15;99779.38;5032782;28;20071;-66
2022/10/25 00:41:12;;;;;;;35.95;12.00;;;;;;;12.53;66.55;99775.97;5035669;28;20417;-66
2022/10/25 00:43:42;;;;;;;27.73;11.07;;;;;;;12.37;66.85;99779.38;5035725;28;20442;-66
2022/10/25 00:46:17;;;;;;;29.75;12.38;;;;;;;12.11;67.90;99780.38;5035713;28;20475;-66
2022/10/25 00:48:48;;;;;;;31.60;12.02;;;;;;;12.17;67.78;99775.38;5035345;28;20069;-66
2022/10/25 00:51:13;;;;;;;31.65;11.38;;;;;;;12.07;68.44;99774.59;5035526;28;20051;-66
2022/10/25 00:53:40;;;;;;;31.95;11.82;;;;;;;12.09;68.22;99782.69;5034435;28;20049;-66
2022/10/25 00:56:14;;;;;;;34.03;11.25;;;;;;;12.10;68.15;99781.53;5035413;28;20115;-66
2022/10/25 00:58:44;;;;;;;23.50;11.25;;;;;;;12.00;68.77;99771.47;5053316;28;20028;-66
2022/10/25 01:01:10;;;;;;;;;;;;;;;12.01;69.00;99766.69;5052811;28;20036;-66
2022/10/25 01:03:38;;;;;;;34.15;12.48;;;;;;;11.90;69.43;99769.06;5053327;28;19991;-66
2022/10/25 01:06:09;;;;;;;44.63;11.45;;;;;;;11.84;69.06;99762.81;5051862;28;20036;-67
2022/10/25 01:08:35;;;;;;;27.00;11.57;;;;;;;12.06;68.40;99770.16;5034805;28;20036;-67
2022/10/25 01:11:01;;;;;;;29.50;10.75;;;;;;;12.10;68.12;99769.47;5052751;28;20045;-66
2022/10/25 01:13:26;;;;;;;22.75;10.98;;;;;;;12.04;68.34;99769.69;5053073;28;20028;-66
2022/10/25 01:15:58;;;;;;;29.40;10.88;;;;;;;12.01;69.07;99770.34;5052883;28;20079;-66
2022/10/25 01:19:10;;;;;;;33.03;12.70;;;;;;;11.84;69.41;99764.78;5053011;28;20025;-67
2022/10/25 01:21:52;;;;;;;38.95;12.75;;;;;;;11.81;70.20;99763.47;5003840;28;20041;-66
2022/10/25 01:24:36;;;;;;;31.30;13.27;;;;;;;11.99;69.78;99777.44;5032050;28;20484;-66
2022/10/25 01:27:11;;;;;;;31.75;11.32;;;;;;;12.02;69.62;99780.41;5032781;28;20087;-67
2022/10/25 01:30:04;;;;;;;39.75;14.18;;;;;;;12.04;69.24;99778.09;5034397;28;20033;-66
2022/10/25 01:32:52;;;;;;;32.72;12.15;;;;;;;11.85;69.37;99774.84;5052600;28;20033;-66
2022/10/25 01:35:29;;;;;;;27.83;12.20;;;;;;;11.77;69.37;99771.75;5038759;28;20054;-67
2022/10/25 01:37:57;;;;;;;28.65;11.25;;;;;;;11.82;69.17;99753.91;5052476;28;20052;-67
2022/10/25 01:40:32;;;;;;;34.00;12.55;;;;;;;12.04;68.29;99763.25;5052700;28;20025;-66
2022/10/25 01:43:10;;;;;;;27.48;12.85;;;;;;;11.97;68.13;99762.94;5052810;28;20475;-66
2022/10/25 01:45:39;;;;;;;37.50;12.02;;;;;;;11.89;68.21;99759.00;5052167;28;20471;-67
2022/10/25 01:48:10;;;;;;;33.42;11.93;;;;;;;11.98;68.20;99756.16;5052381;28;20024;-66
2022/10/25 01:50:39;;;;;;;35.55;12.48;;;;;;;12.17;67.14;99759.38;5051130;28;20561;-67
2022/10/25 01:53:05;;;;;;;34.03;13.85;;;;;;;12.17;66.98;99758.56;5051893;28;20033;-67
2022/10/25 01:55:38;;;;;;;69.90;30.35;;;;;;;11.80;68.21;99751.47;5032886;28;20036;-67
2022/10/25 01:58:28;;;;;;;99.93;47.88;;;;;;;12.25;67.00;99738.06;5031791;28;20058;-67
2022/10/25 02:01:17;;;;;;;75.23;36.00;;;;;;;12.56;65.40;99742.44;5052728;28;20470;-67
2022/10/25 02:03:50;;;;;;;46.88;20.45;;;;;;;12.52;65.45;99751.88;5051053;28;21023;-67
2022/10/25 02:06:59;;;;;;;38.92;18.42;;;;;;;12.24;66.67;99753.22;5051974;28;20571;-66
2022/10/25 02:09:41;;;;;;;34.30;15.95;;;;;;;11.98;67.16;99736.53;5049982;28;20048;-67
2022/10/25 02:12:13;;;;;;;25.10;12.05;;;;;;;11.67;69.48;99741.28;5052523;28;20033;-67
2022/10/25 02:14:50;;;;;;;35.47;12.23;;;;;;;11.39;70.95;99738.91;5052127;28;20549;-66
2022/10/25 02:17:20;;;;;;;26.60;11.80;;;;;;;11.26;71.84;99734.34;5032907;28;20075;-66
2022/10/25 02:19:58;;;;;;;44.50;12.93;;;;;;;11.25;72.21;99733.53;5051185;28;20044;-66
2022/10/25 02:22:28;;;;;;;43.63;11.55;;;;;;;11.42;71.75;99740.22;5034576;28;20076;-66
2022/10/25 02:24:56;;;;;;;35.15;12.10;;;;;;;11.54;70.80;99737.53;5051975;28;20029;-66
2022/10/25 02:27:24;;;;;;;29.67;12.82;;;;;;;11.35;71.51;99735.97;5052156;28;20476;-66
2022/10/25 02:29:52;;;;;;;33.40;14.60;;;;;;;11.59;70.89;99728.97;5052115;28;20112;-66
2022/10/25 02:32:18;;;;;;;34.90;16.50;;;;;;;11.63;70.66;99737.50;5034161;28;20020;-66
2022/10/25 02:34:48;;;;;;;34.50;15.93;;;;;;;11.63;69.60;99737.50;5050437;28;20036;-67
2022/10/25 02:37:13;;;;;;;49.58;16.77;;;;;;;11.64;69.28;99745.59;5051855;28;20021;-66
2022/10/25 02:39:39;;;;;;;28.48;16.10;;;;;;;11.68;69.08;99736.50;5052013;28;20020;-66
2022/10/25 02:42:04;;;;;;;25.73;12.18;;;;;;;11.43;69.71;99748.31;5051446;28;20029;-67
2022/10/25 02:44:30;;;;;;;45.88;15.25;;;;;;;11.25;70.80;99744.72;5051754;28;20031;-66
2022/10/25 02:46:55;;;;;;;38.25;13.23;;;;;;;11.40;69.91;99748.16;5051731;28;20033;-66
2022/10/25 02:49:21;;;;;;;35.88;13.68;;;;;;;11.46;69.72;99738.38;5051163;28;20052;-68
2022/10/25 02:51:46;;;;;;;33.40;13.73;;;;;;;11.24;70.57;99738.28;5050453;28;20028;-66
2022/10/25 02:54:12;;;;;;;39.10;13.98;;;;;;;11.32;70.46;99741.41;5051454;28;20032;-66
2022/10/25 02:56:37;;;;;;;43.58;13.10;;;;;;;11.28;71.80;99743.22;5051677;28;20032;-66
2022/10/25 02:59:03;;;;;;;31.67;11.65;;;;;;;11.15;72.35;99736.69;5051678;28;20120;-66
2022/10/25 03:01:28;;;;;;;39.33;12.52;;;;;;;11.22;71.56;99739.78;5051185;28;20033;-66
2022/10/25 03:03:54;;;;;;;29.02;12.43;;;;;;;11.07;72.38;99743.94;5050215;28;20029;-66
2022/10/25 03:06:20;;;;;;;40.95;13.75;;;;;;;11.03;72.95;99738.19;5033662;28;20092;-66
2022/10/25 03:08:45;;;;;;;45.85;13.10;;;;;;;10.99;73.56;99734.41;5051406;28;20025;-66
2022/10/25 03:11:12;;;;;;;35.72;13.15;;;;;;;11.24;72.02;99734.69;5051352;28;20069;-66
2022/10/25 03:13:38;;;;;;;44.20;13.90;;;;;;;11.30;71.28;99735.31;5051110;28;20107;-67
2022/10/25 03:16:04;;;;;;;46.47;15.05;;;;;;;11.51;70.68;99727.81;5033648;28;20479;-66
2022/10/25 03:18:30;;;;;;;51.00;16.23;;;;;;;11.56;70.40;99740.03;5050342;28;20025;-67
2022/10/25 03:20:57;;;;;;;37.97;15.15;;;;;;;11.59;69.99;99730.94;5051335;28;20419;-66
2022/10/25 03:23:23;;;;;;;34.33;14.48;;;;;;;11.84;68.93;99731.16;5050986;28;20036;-66
2022/10/25 03:25:53;;;;;;;60.67;16.35;;;;;;;11.79;68.45;99727.41;5051229;28;20029;-67
2022/10/25 03:28:18;;;;;;;42.22;15.07;;;;;;;11.69;69.47;99726.94;5051244;28;20155;-67
2022/10/25 03:30:44;;;;;;;40.30;16.00;;;;;;;11.40;70.30;99725.75;5033280;28;20123;-66
2022/10/25 03:33:09;;;;;;;46.25;19.17;;;;;;;11.35;70.64;99724.78;5049844;28;20029;-67
2022/10/25 03:35:35;;;;;;;73.80;19.83;;;;;;;11.52;69.26;99731.47;5051270;28;20052;-67
2022/10/25 03:38:00;;;;;;;59.65;18.17;;;;;;;11.46;68.99;99724.38;5051097;28;20048;-66
2022/10/25 03:40:26;;;;;;;46.40;14.98;;;;;;;10.79;73.41;99724.69;5051141;28;20021;-66
2022/10/25 03:42:51;;;;;;;33.97;10.57;;;;;;;10.89;75.35;99723.53;5050845;28;20082;-66
2022/10/25 03:45:17;;;;;;;45.28;13.68;;;;;;;11.07;74.27;99738.34;5051144;28;20065;-67
2022/10/25 03:47:43;;;;;;;49.08;15.52;;;;;;;11.11;74.02;99730.91;5032209;28;20032;-66
2022/10/25 03:50:08;;;;;;;38.42;14.23;;;;;;;11.22;73.22;99734.16;5033004;28;20096;-67
2022/10/25 03:52:34;;;;;;;44.85;12.13;;;;;;;11.14;74.35;99727.44;5050675;28;20024;-66
2022/10/25 03:54:59;;;;;;;37.88;13.07;;;;;;;11.16;74.14;99727.94;5033142;28;20052;-66
2022/10/25 03:57:25;;;;;;;48.22;14.95;;;;;;;11.00;75.30;99733.25;5051086;28;20108;-66
2022/10/25 03:59:50;;;;;;;31.73;11.73;;;;;;;10.95;75.15;99733.41;5050888;28;20029;-66
2022/10/25 04:02:16;;;;;;;37.17;13.65;;;;;;;11.13;74.12;99727.78;5049488;28;20025;-66
2022/10/25 04:04:41;;;;;;;28.98;13.10;;;;;;;11.04;74.20;99720.22;5032935;28;20122;-67
2022/10/25 04:07:07;;;;;;;36.33;11.20;;;;;;;10.95;74.94;99711.84;5050951;28;20036;-66
2022/10/25 04:09:32;;;;;;;33.50;15.15;;;;;;;10.87;74.80;99725.84;5050641;28;20132;-67
2022/10/25 04:11:58;;;;;;;46.03;16.33;;;;;;;10.73;75.86;99715.63;5049271;28;20025;-67
2022/10/25 04:14:24;;;;;;;54.40;20.23;;;;;;;11.00;74.19;99724.00;5053356;28;20037;-66
2022/10/25 04:16:49;;;;;;;32.92;15.68;;;;;;;10.90;73.87;99725.19;5053695;28;20488;-67
2022/10/25 04:19:14;;;;;;;31.67;14.93;;;;;;;10.65;73.47;99720.09;5036604;28;20021;-66
2022/10/25 04:21:40;;;;;;;27.52;12.45;;;;;;;10.60;73.82;99723.06;5054658;28;20029;-66
2022/10/25 04:24:06;;;;;;;30.35;12.23;;;;;;;10.59;73.33;99728.97;5054247;28;20410;-66
2022/10/25 04:26:35;;;;;;;40.10;12.30;;;;;;;10.53;73.29;99731.13;5035371;28;20029;-66
2022/10/25 04:29:02;;;;;;;38.80;13.00;;;;;;;10.27;73.67;99723.50;5054396;28;20025;-66
2022/10/25 04:31:27;;;;;;;28.42;12.38;;;;;;;10.16;73.97;99720.22;5053149;28;20044;-66
2022/10/25 04:33:54;;;;;;;31.15;12.38;;;;;;;10.17;74.93;99723.81;5054141;28;20037;-66
2022/10/25 04:36:20;;;;;;;32.58;10.88;;;;;;;9.97;76.42;99710.13;5036391;28;20025;-66
2022/10/25 04:38:52;;;;;;;33.38;13.40;;;;;;;9.86;77.50;99707.97;5053378;28;20090;-66
2022/10/25 04:41:19;;;;;;;36.55;12.43;;;;;;;10.05;76.71;99719.66;5036474;28;20028;-67
2022/10/25 04:43:44;;;;;;;36.80;12.63;;;;;;;10.17;75.57;99712.63;5054275;28;20029;-67
2022/10/25 04:46:10;;;;;;;37.63;15.57;;;;;;;10.21;75.83;99717.25;5053668;28;20115;-67
2022/10/25 04:48:36;;;;;;;42.25;13.70;;;;;;;10.45;74.43;99718.78;5054811;28;20056;-68
2022/10/25 04:51:03;;;;;;;42.20;15.32;;;;;;;10.65;72.98;99720.09;5054986;28;20029;-67
2022/10/25 04:53:28;;;;;;;42.35;19.00;;;;;;;10.46;72.97;99709.22;5054344;28;20104;-68
2022/10/25 04:55:55;;;;;;;40.72;15.05;;;;;;;10.43;72.64;99721.09;5054295;28;20476;-65
2022/10/25 04:58:21;;;;;;;41.35;14.30;;;;;;;10.24;73.21;99712.97;5054557;28;20099;-65
2022/10/25 05:00:46;;;;;;;34.53;15.30;;;;;;;10.50;72.55;99718.63;5035819;28;20112;-67
2022/10/25 05:03:12;;;;;;;54.25;16.63;;;;;;;10.56;71.15;99718.47;5036361;28;20031;-66
2022/10/25 05:05:37;;;;;;;47.38;16.35;;;;;;;10.56;72.20;99715.66;5054221;28;20032;-66
2022/10/25 05:08:03;;;;;;;51.05;17.17;;;;;;;10.44;72.18;99728.31;5053937;28;20036;-68
2022/10/25 05:10:28;;;;;;;37.75;16.05;;;;;;;10.71;72.12;99737.53;5036283;28;20041;-66
2022/10/25 05:12:54;;;;;;;39.30;14.23;;;;;;;10.86;70.88;99722.22;5054310;28;20029;-65
2022/10/25 05:15:20;;;;;;;54.50;23.77;;;;;;;10.80;70.62;99743.97;5051105;28;20056;-64
2022/10/25 05:17:45;;;;;;;32.80;14.05;;;;;;;11.03;69.28;99740.97;5052666;28;20085;-68
2022/10/25 05:20:11;;;;;;;38.10;12.55;;;;;;;11.23;68.70;99742.25;5041593;28;20025;-71
2022/10/25 05:22:36;;;;;;;44.17;13.02;;;;;;;11.16;69.42;99735.50;5051390;28;20365;-67
2022/10/25 05:25:02;;;;;;;63.13;12.57;;;;;;;11.34;68.38;99731.53;5035346;28;20028;-69
2022/10/25 05:27:27;;;;;;;35.03;11.23;;;;;;;11.52;68.67;99745.47;5049336;28;20035;-66
2022/10/25 05:29:53;;;;;;;33.90;11.90;;;;;;;11.68;68.47;99753.31;5046445;28;20029;-67
2022/10/25 05:32:18;;;;;;;49.42;13.07;;;;;;;11.71;68.47;99738.66;5033361;28;20037;-66
2022/10/25 05:34:44;;;;;;;37.50;10.57;;;;;;;11.83;68.74;99744.38;5037471;28;20029;-67
2022/10/25 05:37:10;;;;;;;29.25;12.07;;;;;;;10.88;73.52;99747.09;5051154;28;20021;-67
2022/10/25 05:39:36;;;;;;;39.28;16.23;;;;;;;10.52;75.38;99752.69;5035113;28;20029;-66
2022/10/25 05:42:05;;;;;;;54.60;14.00;;;;;;;10.48;76.27;99754.47;5048419;28;20029;-66
2022/10/25 05:44:31;;;;;;;40.92;12.82;;;;;;;10.36;76.76;99755.09;5034701;28;20033;-67
2022/10/25 05:46:56;;;;;;;33.35;13.07;;;;;;;10.71;76.68;99742.31;5050031;28;20113;-70
2022/10/25 05:49:21;;;;;;;47.20;15.90;;;;;;;11.02;75.35;99747.72;5047900;28;20106;-66
2022/10/25 05:51:47;;;;;;;39.47;15.32;;;;;;;11.11;75.33;99747.72;5051613;28;20526;-66
2022/10/25 05:54:14;;;;;;;48.72;16.92;;;;;;;11.03;75.69;99757.75;5051461;28;20047;-66
2022/10/25 05:56:41;;;;;;;41.17;13.02;;;;;;;11.06;75.47;99767.50;5050114;28;20063;-66
2022/10/25 05:59:09;;;;;;;31.52;12.18;;;;;;;10.79;76.47;99770.28;5034767;28;20128;-66
2022/10/25 06:01:36;;;;;;;46.42;14.40;;;;;;;11.00;76.51;99769.63;5051813;28;20036;-66
2022/10/25 06:04:05;;;;;;;49.55;15.32;;;;;;;10.94;76.23;99763.38;5052255;28;20035;-67
2022/10/25 06:06:30;;;;;;;37.58;13.63;;;;;;;11.17;75.55;99763.19;5041029;28;20132;-67
2022/10/25 06:08:57;;;;;;;34.08;13.85;;;;;;;11.56;73.90;99774.44;5034471;28;20534;-70
2022/10/25 06:11:23;;;;;;;35.95;13.18;;;;;;;11.64;73.44;99768.00;5022802;28;20147;-69
2022/10/25 06:13:48;;;;;;;39.35;14.80;;;;;;;11.85;73.11;99774.84;5034171;28;20025;-68
2022/10/25 06:16:18;;;;;;;31.63;12.13;;;;;;;11.98;72.81;99772.97;5050576;28;20082;-68
2022/10/25 06:18:44;;;;;;;34.28;13.20;;;;;;;12.24;72.08;99777.66;5050841;28;20388;-71
2022/10/25 06:21:31;;;;;;;40.45;13.20;;;;;;;12.53;71.25;99774.00;5049151;28;20036;-73
2022/10/25 06:23:58;;;;;;;166.40;70.82;;;;;;;12.75;70.72;99777.66;5048985;28;20120;-70
2022/10/25 06:26:26;;;;;;;142.18;68.55;;;;;;;12.96;70.11;99766.41;5051306;28;20048;-70
2022/10/25 06:28:56;;;;;;;36.95;14.55;;;;;;;13.14;69.85;99777.47;5032401;28;20048;-69
2022/10/25 06:31:22;;;;;;;33.00;13.13;;;;;;;13.19;69.80;99782.88;5032011;28;20031;-68
2022/10/25 06:33:47;;;;;;;32.47;9.65;;;;;;;13.40;69.25;99784.81;5051455;28;20424;-68
2022/10/25 06:36:18;;;;;;;30.15;10.23;;;;;;;13.50;68.51;99790.00;5033191;28;20033;-65
2022/10/25 06:38:44;;;;;;;26.52;10.23;;;;;;;13.74;68.11;99782.81;5050635;28;20028;-65
2022/10/25 06:41:14;;;;;;;30.60;10.77;;;;;;;13.84;67.70;99782.34;5051079;28;20056;-67
2022/10/25 06:43:40;;;;;;;33.97;11.32;;;;;;;14.10;66.86;99778.38;5050865;28;20029;-66
2022/10/25 06:46:07;;;;;;;37.33;13.00;;;;;;;14.32;65.94;99768.66;5050496;28;20505;-66
2022/10/25 06:48:33;;;;;;;41.03;12.20;;;;;;;14.41;64.94;99776.13;5051157;28;20037;-69
2022/10/25 06:51:04;;;;;;;24.15;10.05;;;;;;;14.13;65.54;99779.69;5034071;28;20025;-68
2022/10/25 06:53:30;;;;;;;44.75;11.73;;;;;;;14.09;65.59;99773.94;5049357;28;20033;-69
2022/10/25 06:56:09;;;;;;;28.77;11.90;;;;;;;14.24;65.62;99768.75;5042561;28;20645;-68
2022/10/25 06:58:36;;;;;;;32.90;13.07;;;;;;;14.53;64.90;99767.66;5045320;28;20051;-69
2022/10/25 07:01:07;;;;;;;30.23;11.77;;;;;;;14.73;64.42;99776.34;5028273;28;20089;-67
2022/10/25 07:03:36;;;;;;;30.17;11.23;;;;;;;15.00;63.34;99786.00;5031314;28;20024;-66
2022/10/25 07:06:05;;;;;;;33.63;11.02;;;;;;;15.05;63.15;99781.28;5046189;28;20039;-66
2022/10/25 07:08:32;;;;;;;29.93;11.60;;;;;;;15.14;61.98;99770.69;5048511;28;20055;-66
2022/10/25 07:10:58;;;;;;;33.50;12.18;;;;;;;15.34;61.78;99766.00;5028398;28;20078;-68
2022/10/25 07:13:24;;;;;;;24.00;10.43;;;;;;;15.58;60.75;99775.50;5042273;28;20475;-66
2022/10/25 07:15:49;;;;;;;37.53;10.55;;;;;;;15.70;60.18;99766.16;5031000;28;20115;-66
2022/10/25 07:18:16;;;;;;;32.83;10.88;;;;;;;15.76;60.78;99764.72;5024669;28;20032;-67
2022/10/25 07:20:47;;;;;;;41.20;10.25;;;;;;;16.00;59.46;99758.09;5050560;28;20029;-66
2022/10/25 07:23:16;;;;;;;38.15;10.05;;;;;;;15.68;59.81;99758.06;5048997;28;20025;-65
2022/10/25 07:25:42;;;;;;;41.00;11.10;;;;;;;15.64;60.60;99753.50;5047372;28;20499;-66
2022/10/25 07:28:08;;;;;;;29.13;9.63;;;;;;;16.00;59.44;99755.28;5048710;28;20025;-71
2022/10/25 07:30:33;;;;;;;23.70;9.32;;;;;;;16.17;58.66;99758.91;5047434;28;20415;-66
2022/10/25 07:32:59;;;;;;;27.27;8.55;;;;;;;15.96;59.04;99734.59;5050735;28;20399;-66
2022/10/25 07:35:24;;;;;;;28.98;8.65;;;;;;;16.24;59.03;99744.13;5028221;28;20071;-66
2022/10/25 07:37:49;;;;;;;25.63;9.75;;;;;;;16.42;58.22;99745.38;5049414;28;20041;-69
2022/10/25 07:40:15;;;;;;;28.05;9.02;;;;;;;16.70;57.21;99740.72;5041199;28;20052;-66
2022/10/25 07:42:40;;;;;;;17.15;9.07;;;;;;;17.02;56.33;99737.78;5050494;28;20028;-66
2022/10/25 07:45:07;;;;;;;22.50;8.70;;;;;;;17.12;55.68;99742.00;5048811;28;20033;-67
2022/10/25 07:47:32;;;;;;;26.15;8.93;;;;;;;17.21;54.82;99725.66;5036439;28;20094;-67
2022/10/25 07:49:59;;;;;;;36.92;9.65;;;;;;;17.58;54.06;99731.97;5042358;28;20029;-67
2022/10/25 07:52:24;;;;;;;31.73;9.27;;;;;;;17.66;53.24;99739.41;5045393;28;20032;-67
2022/10/25 07:54:50;;;;;;;23.77;8.13;;;;;;;17.76;53.20;99730.28;5052612;28;20032;-66
2022/10/25 07:57:15;;;;;;;16.35;7.05;;;;;;;18.08;51.99;99724.34;5052040;28;20032;-67
2022/10/25 07:59:41;;;;;;;29.45;7.95;;;;;;;18.13;51.90;99717.53;5037460;28;20033;-66
2022/10/25 08:02:10;;;;;;;23.27;8.25;;;;;;;17.99;51.71;99708.81;5044625;28;20078;-66
2022/10/25 08:04:35;;;;;;;24.33;8.40;;;;;;;18.45;50.83;99702.22;5053522;28;20461;-66
2022/10/25 08:07:01;;;;;;;22.73;7.40;;;;;;;18.64;51.20;99699.25;5037572;28;20448;-66
2022/10/25 08:09:27;;;;;;;27.73;7.50;;;;;;;18.65;50.32;99700.09;5053505;28;20415;-66
2022/10/25 08:11:52;;;;;;;23.90;7.90;;;;;;;18.52;49.35;99714.50;5054159;28;20479;-67
2022/10/25 08:14:18;;;;;;;28.35;7.45;;;;;;;18.78;49.00;99720.47;5053853;28;20036;-66
2022/10/25 08:16:43;;;;;;;21.33;7.72;;;;;;;18.92;48.86;99708.50;5054018;28;20376;-66
2022/10/25 08:19:08;;;;;;;25.75;6.78;;;;;;;19.26;47.90;99699.19;5052583;28;20488;-66
2022/10/25 08:21:34;;;;;;;20.50;7.25;;;;;;;19.44;47.65;99702.19;5054033;28;20400;-67
2022/10/25 08:23:59;;;;;;;53.25;8.98;;;;;;;19.51;46.64;99702.28;5046304;28;20495;-66
2022/10/25 08:26:27;;;;;;;20.92;8.10;;;;;;;19.56;47.84;99689.78;5053893;28;20033;-66
2022/10/25 08:28:53;;;;;;;39.90;9.15;;;;;;;19.75;48.48;99689.50;5053558;28;20051;-69
2022/10/25 08:31:18;;;;;;;26.08;8.80;;;;;;;19.94;47.26;99687.69;5052534;28;20056;-69
2022/10/25 08:33:44;;;;;;;23.08;9.18;;;;;;;19.89;47.20;99685.97;5038277;28;20115;-67
2022/10/25 08:36:09;;;;;;;28.73;8.20;;;;;;;19.76;47.25;99684.66;5053784;28;20020;-68
2022/10/25 08:38:35;;;;;;;25.48;8.85;;;;;;;19.95;46.55;99674.28;5046661;28;20044;-68
2022/10/25 08:41:42;;;;;;;26.52;8.10;;;;;;;19.75;46.20;99674.53;5053020;28;20024;-68
2022/10/25 08:44:45;;;;;;;32.65;9.52;;;;;;;20.36;44.86;99676.16;5034254;28;20048;-68
2022/10/25 08:47:18;;;;;;;24.15;8.15;;;;;;;20.49;44.49;99668.94;5034513;28;20138;-67
2022/10/25 08:50:02;;;;;;;24.98;9.30;;;;;;;20.55;43.75;99669.38;5053145;28;20066;-66
2022/10/25 08:52:38;;;;;;;31.70;8.85;;;;;;;20.88;43.11;99656.13;5046973;28;20013;-67
2022/10/25 08:55:12;;;;;;;31.95;9.27;;;;;;;21.21;43.09;99659.88;5053354;28;20131;-66
2022/10/25 08:57:45;;;;;;;28.35;7.97;;;;;;;21.43;42.92;99660.72;5053329;28;20021;-67
2022/10/25 09:00:19;;;;;;;22.75;7.25;;;;;;;21.58;41.94;99655.84;5051786;28;20510;-67
2022/10/25 09:02:59;;;;;;;28.88;9.60;;;;;;;21.74;41.52;99651.81;5051149;28;20049;-70
2022/10/25 09:05:36;;;;;;;55.70;10.63;;;;;;;21.77;41.21;99650.97;5038002;28;20083;-66
2022/10/25 09:08:12;;;;;;;29.38;8.73;;;;;;;21.83;41.47;99637.97;5032809;28;20191;-66
2022/10/25 09:10:49;;;;;;;24.77;6.47;;;;;;;22.08;41.31;99633.44;5034590;28;20040;-66
2022/10/25 09:13:21;;;;;;;19.88;6.90;;;;;;;22.18;40.90;99626.13;5051657;28;20036;-67
2022/10/25 09:16:04;;;;;;;26.23;6.55;;;;;;;22.39;40.57;99622.38;5046962;28;20025;-67
2022/10/25 09:18:44;;;;;;;26.38;6.72;;;;;;;22.56;40.03;99607.28;5046991;28;20021;-66
2022/10/25 09:21:38;;;;;;;28.40;7.63;;;;;;;22.62;39.17;99619.03;5043427;28;20032;-66
2022/10/25 09:24:32;;;;;;;25.83;6.57;;;;;;;22.72;39.12;99609.63;5028281;28;20041;-66
2022/10/25 09:27:00;;;;;;;29.95;7.75;;;;;;;22.99;38.55;99608.25;5049506;28;20475;-67
2022/10/25 09:29:38;;;;;;;29.20;9.23;;;;;;;23.16;37.99;99600.81;5048305;28;20029;-67
2022/10/25 09:32:13;;;;;;;18.60;6.85;;;;;;;23.26;38.25;99593.41;5050793;28;20453;-66
2022/10/25 09:34:40;;;;;;;33.90;8.27;;;;;;;23.44;38.02;99581.06;5032960;28;20033;-66
2022/10/25 09:37:21;;;;;;;24.45;7.72;;;;;;;23.54;37.22;99585.88;5047966;28;20032;-65
2022/10/25 09:39:53;;;;;;;32.50;8.45;;;;;;;23.62;36.80;99575.22;5047728;28;20143;-66
2022/10/25 09:42:31;;;;;;;29.23;7.93;;;;;;;23.79;36.79;99571.34;5032638;28;20025;-64
2022/10/25 09:45:01;;;;;;;37.42;9.45;;;;;;;23.94;36.25;99574.88;5047585;28;20025;-65
2022/10/25 09:47:30;;;;;;;27.05;7.60;;;;;;;24.03;36.06;99570.72;5027187;28;20037;-66
2022/10/25 09:50:00;;;;;;;28.58;7.28;;;;;;;24.18;35.87;99560.75;5030394;28;20033;-65
2022/10/25 09:52:34;;;;;;;33.72;9.35;;;;;;;24.35;35.61;99555.22;5051730;28;20040;-66
2022/10/25 09:55:18;;;;;;;29.77;7.95;;;;;;;24.45;35.09;99562.88;5042582;28;20108;-68
2022/10/25 09:57:45;;;;;;;27.05;8.15;;;;;;;24.43;35.16;99559.63;5045705;28;20596;-66
2022/10/25 10:00:14;;;;;;;37.35;9.43;;;;;;;24.53;34.56;99552.13;5048221;28;20025;-67
2022/10/25 10:02:40;;;;;;;36.03;7.90;;;;;;;24.51;34.76;99548.91;5041046;28;20031;-67
2022/10/25 10:05:16;;;;;;;29.10;8.20;;;;;;;24.60;34.30;99554.91;5030476;28;20396;-69
2022/10/25 10:07:44;;;;;;;28.13;9.43;;;;;;;24.38;34.84;99540.09;5039066;28;20090;-68
2022/10/25 10:10:19;;;;;;;29.60;9.98;;;;;;;24.59;35.76;99546.75;5051351;28;20041;-68
2022/10/25 10:12:48;;;;;;;29.35;8.93;;;;;;;24.76;34.25;99542.84;5051973;28;20025;-73
2022/10/25 10:15:26;;;;;;;43.17;8.52;;;;;;;24.85;34.67;99538.66;5051533;28;20028;-70
2022/10/25 10:18:24;;;;;;;29.73;7.88;;;;;;;24.62;35.58;99534.47;5040258;28;20055;-70
2022/10/25 10:21:09;;;;;;;25.40;7.75;;;;;;;24.72;35.18;99524.13;5047091;28;20019;-70
2022/10/25 10:23:41;;;;;;;26.52;8.18;;;;;;;24.70;34.79;99521.69;5035984;28;20045;-70
2022/10/25 10:26:25;;;;;;;30.15;8.65;;;;;;;24.85;34.64;99524.34;5036991;28;20051;-68
2022/10/25 10:29:12;;;;;;;21.45;6.88;;;;;;;24.80;33.00;99517.88;5044996;28;20427;-69
2022/10/25 10:31:48;;;;;;;25.38;7.35;;;;;;;24.97;33.50;99512.28;5019783;28;20116;-69
2022/10/25 10:34:19;;;;;;;36.58;7.68;;;;;;;25.05;33.77;99510.94;5041728;28;20032;-67
2022/10/25 10:36:46;;;;;;;26.90;7.40;;;;;;;25.06;33.71;99503.19;5048815;28;20412;-67
2022/10/25 10:39:21;;;;;;;32.95;9.40;;;;;;;25.14;33.24;99498.16;5022538;28;20127;-67
2022/10/25 10:42:14;;;;;;;42.67;8.15;;;;;;;25.23;33.45;99504.91;5051212;28;20411;-67
2022/10/25 10:44:40;;;;;;;37.83;8.10;;;;;;;25.31;33.50;99499.09;5018163;28;20076;-67
2022/10/25 10:47:20;;;;;;;37.40;8.90;;;;;;;25.30;34.26;99503.97;5046931;28;20111;-67
2022/10/25 10:49:46;;;;;;;30.88;9.40;;;;;;;25.35;33.52;99506.38;5046250;28;20415;-67
2022/10/25 10:52:41;;;;;;;34.67;8.07;;;;;;;25.47;33.46;99499.19;5044817;28;20393;-67
2022/10/25 10:55:18;;;;;;;40.20;8.88;;;;;;;25.50;33.52;99494.69;5047516;28;20045;-67
2022/10/25 10:57:44;;;;;;;30.45;7.70;;;;;;;25.60;32.65;99493.66;5050385;28;20028;-67
2022/10/25 11:00:24;;;;;;;36.53;8.45;;;;;;;25.58;33.07;99493.31;5037937;28;20025;-67
2022/10/25 11:02:50;;;;;;;;;;;;;;;25.66;32.72;99479.66;5051672;28;20056;-67
2022/10/25 11:05:31;;;;;;;43.75;10.55;;;;;;;25.65;32.70;99481.69;5050141;28;19956;-67
2022/10/25 11:08:01;;;;;;;25.13;7.78;;;;;;;25.73;32.72;99484.44;5050890;28;20025;-67
2022/10/25 11:10:30;;;;;;;37.88;11.23;;;;;;;25.79;32.55;99476.94;5035359;28;20045;-67
2022/10/25 11:13:17;;;;;;;34.78;8.80;;;;;;;25.78;32.20;99478.19;5048751;28;20484;-67
2022/10/25 11:16:04;;;;;;;39.17;9.20;;;;;;;25.79;32.44;99469.16;5037823;28;20032;-66
2022/10/25 11:18:49;;;;;;;35.22;11.90;;;;;;;25.83;31.80;99465.41;5050717;28;20127;-68
2022/10/25 11:21:49;;;;;;;26.02;9.95;;;;;;;26.02;31.13;99466.66;5050677;28;20029;-68
2022/10/25 11:24:42;;;;;;;30.97;8.30;;;;;;;25.93;31.53;99465.16;5047018;28;20041;-67
2022/10/25 11:27:32;;;;;;;54.95;22.20;;;;;;;26.01;31.81;99457.25;5040123;28;20033;-67
2022/10/25 11:29:58;;;;;;;44.58;21.27;;;;;;;26.20;32.26;99463.41;5049803;28;20036;-66
2022/10/25 11:32:33;;;;;;;88.03;46.25;;;;;;;26.33;32.32;99455.75;5050720;28;20029;-66
2022/10/25 11:35:20;;;;;;;63.65;30.38;;;;;;;26.46;31.26;99450.16;5049471;28;20032;-66